Mount Crested Butte, Colorado
Current Conditions -  °F | °C
As of 6:53 AM on Monday 24 Nov 2014 (Local Time) from KASE Reporting Station
Light Snow Light Snow  
Wind Chill: 17°   Ceiling: 2100
Heat Index: 17°   Visibility: 2mi
Dew Point: 14°   Wind: 0mph
Humidity: 88%   Direction: NA
Pressure: 30.02"   Gusts: NA
Location:  38.8977°N, 106.967°W
Report Text: KASE 241353Z 00000KT 2SM -SN BR OVC021 M08/M10 A3002 RMK AO2 SLP192 P0001 T10831100
Loading
Personal Weather Stations






























Interactive Weather Map New forecast layout! Learn more

10-Day Weather Forecast

Advertisements
Track Severe Weather on mobile